sensor_id;sensor_type;location;lat;lon;timestamp;pressure;altitude;pressure_sealevel;temperature;humidity
35910;BME280;22004;49.120;-0.200;2023-08-08T00:00:05;101802.31;;;17.17;82.27
35910;BME280;22004;49.120;-0.200;2023-08-08T00:02:30;101805.41;;;17.14;82.27
35910;BME280;22004;49.120;-0.200;2023-08-08T00:04:56;101798.16;;;17.21;82.04
35910;BME280;22004;49.120;-0.200;2023-08-08T00:07:21;101808.25;;;17.34;81.89
35910;BME280;22004;49.120;-0.200;2023-08-08T00:09:46;101803.66;;;17.35;81.78
35910;BME280;22004;49.120;-0.200;2023-08-08T00:12:12;101804.72;;;17.34;81.62
35910;BME280;22004;49.120;-0.200;2023-08-08T00:14:37;101801.03;;;17.13;81.39
35910;BME280;22004;49.120;-0.200;2023-08-08T00:17:03;101810.78;;;17.36;81.95
35910;BME280;22004;49.120;-0.200;2023-08-08T00:19:28;101799.06;;;17.35;81.73
35910;BME280;22004;49.120;-0.200;2023-08-08T00:21:53;101806.13;;;17.29;82.11
35910;BME280;22004;49.120;-0.200;2023-08-08T00:24:19;101799.03;;;17.28;81.94
35910;BME280;22004;49.120;-0.200;2023-08-08T00:26:44;101802.13;;;17.25;81.61
35910;BME280;22004;49.120;-0.200;2023-08-08T00:29:10;101802.44;;;17.37;82.00
35910;BME280;22004;49.120;-0.200;2023-08-08T00:31:35;101789.53;;;17.11;81.36
35910;BME280;22004;49.120;-0.200;2023-08-08T00:34:00;101794.41;;;17.22;81.47
35910;BME280;22004;49.120;-0.200;2023-08-08T00:36:26;101791.13;;;17.34;81.86
35910;BME280;22004;49.120;-0.200;2023-08-08T00:38:51;101787.44;;;17.07;82.11
35910;BME280;22004;49.120;-0.200;2023-08-08T00:41:16;101785.72;;;17.40;81.75
35910;BME280;22004;49.120;-0.200;2023-08-08T00:43:42;101797.72;;;17.52;81.37
35910;BME280;22004;49.120;-0.200;2023-08-08T00:46:08;101789.13;;;17.49;81.72
35910;BME280;22004;49.120;-0.200;2023-08-08T00:48:34;101792.25;;;17.46;81.64
35910;BME280;22004;49.120;-0.200;2023-08-08T00:50:59;101781.94;;;17.35;81.97
35910;BME280;22004;49.120;-0.200;2023-08-08T00:53:25;101781.31;;;17.33;81.85
35910;BME280;22004;49.120;-0.200;2023-08-08T00:55:53;101781.19;;;17.13;81.91
35910;BME280;22004;49.120;-0.200;2023-08-08T00:58:19;101774.25;;;17.38;81.97
35910;BME280;22004;49.120;-0.200;2023-08-08T01:00:44;101770.03;;;17.29;81.90
35910;BME280;22004;49.120;-0.200;2023-08-08T01:03:10;101771.78;;;17.43;81.67
35910;BME280;22004;49.120;-0.200;2023-08-08T01:05:41;101772.13;;;17.34;81.94
35910;BME280;22004;49.120;-0.200;2023-08-08T01:08:10;101765.03;;;17.33;81.78
35910;BME280;22004;49.120;-0.200;2023-08-08T01:10:38;101762.34;;;17.39;81.88
35910;BME280;22004;49.120;-0.200;2023-08-08T01:13:07;101757.72;;;17.33;82.23
35910;BME280;22004;49.120;-0.200;2023-08-08T01:15:34;101754.78;;;17.28;82.09
35910;BME280;22004;49.120;-0.200;2023-08-08T01:18:07;101753.59;;;17.44;81.66
35910;BME280;22004;49.120;-0.200;2023-08-08T01:20:33;101760.22;;;17.28;82.24
35910;BME280;22004;49.120;-0.200;2023-08-08T01:23:26;101757.28;;;17.29;82.26
35910;BME280;22004;49.120;-0.200;2023-08-08T01:25:54;101755.00;;;17.26;82.52
35910;BME280;22004;49.120;-0.200;2023-08-08T01:28:21;101753.44;;;17.11;83.45
35910;BME280;22004;49.120;-0.200;2023-08-08T01:30:47;101748.25;;;17.16;82.89
35910;BME280;22004;49.120;-0.200;2023-08-08T01:33:12;101750.41;;;16.99;84.37
35910;BME280;22004;49.120;-0.200;2023-08-08T01:35:39;101738.63;;;17.13;83.49
35910;BME280;22004;49.120;-0.200;2023-08-08T01:40:39;101752.75;;;17.02;83.48
35910;BME280;22004;49.120;-0.200;2023-08-08T01:43:06;101743.53;;;16.96;83.08
35910;BME280;22004;49.120;-0.200;2023-08-08T01:45:32;101740.38;;;16.93;83.87
35910;BME280;22004;49.120;-0.200;2023-08-08T01:47:57;101746.97;;;17.12;83.76
35910;BME280;22004;49.120;-0.200;2023-08-08T01:50:23;101747.94;;;17.04;83.16
35910;BME280;22004;49.120;-0.200;2023-08-08T01:52:48;101743.22;;;17.13;83.17
35910;BME280;22004;49.120;-0.200;2023-08-08T01:55:14;101749.69;;;17.12;83.31
35910;BME280;22004;49.120;-0.200;2023-08-08T01:57:39;101744.28;;;17.18;82.69
35910;BME280;22004;49.120;-0.200;2023-08-08T02:00:06;101736.75;;;17.14;82.81
35910;BME280;22004;49.120;-0.200;2023-08-08T02:02:32;101748.13;;;16.96;82.71
35910;BME280;22004;49.120;-0.200;2023-08-08T02:04:57;101740.22;;;16.73;84.42
35910;BME280;22004;49.120;-0.200;2023-08-08T02:07:23;101740.81;;;16.96;83.25
35910;BME280;22004;49.120;-0.200;2023-08-08T02:09:48;101736.16;;;16.90;83.90
35910;BME280;22004;49.120;-0.200;2023-08-08T02:12:16;101739.81;;;17.04;83.19
35910;BME280;22004;49.120;-0.200;2023-08-08T02:14:41;101738.41;;;17.15;82.64
35910;BME280;22004;49.120;-0.200;2023-08-08T02:17:06;101737.41;;;17.16;82.70
35910;BME280;22004;49.120;-0.200;2023-08-08T02:19:32;101731.31;;;17.14;83.02
35910;BME280;22004;49.120;-0.200;2023-08-08T02:21:57;101740.50;;;17.13;82.77
35910;BME280;22004;49.120;-0.200;2023-08-08T02:24:22;101738.13;;;17.03;82.92
35910;BME280;22004;49.120;-0.200;2023-08-08T02:26:47;101733.94;;;17.00;83.22
35910;BME280;22004;49.120;-0.200;2023-08-08T02:29:13;101731.28;;;17.07;82.68
35910;BME280;22004;49.120;-0.200;2023-08-08T02:31:39;101729.53;;;16.93;83.12
35910;BME280;22004;49.120;-0.200;2023-08-08T02:34:04;101723.94;;;17.01;82.51
35910;BME280;22004;49.120;-0.200;2023-08-08T02:36:29;101732.34;;;17.13;83.07
35910;BME280;22004;49.120;-0.200;2023-08-08T02:38:55;101736.25;;;17.03;82.93
35910;BME280;22004;49.120;-0.200;2023-08-08T02:41:20;101739.34;;;17.00;83.34
35910;BME280;22004;49.120;-0.200;2023-08-08T02:43:46;101745.66;;;17.01;83.08
35910;BME280;22004;49.120;-0.200;2023-08-08T02:46:11;101751.47;;;16.98;83.32
35910;BME280;22004;49.120;-0.200;2023-08-08T02:48:36;101739.44;;;17.07;82.91
35910;BME280;22004;49.120;-0.200;2023-08-08T02:51:02;101735.44;;;17.03;83.27
35910;BME280;22004;49.120;-0.200;2023-08-08T02:53:27;101739.81;;;17.04;83.03
35910;BME280;22004;49.120;-0.200;2023-08-08T02:55:53;101727.19;;;16.90;83.36
35910;BME280;22004;49.120;-0.200;2023-08-08T02:58:18;101737.56;;;17.14;82.89
35910;BME280;22004;49.120;-0.200;2023-08-08T03:00:43;101741.78;;;17.17;83.09
35910;BME280;22004;49.120;-0.200;2023-08-08T03:03:08;101729.75;;;16.98;83.07
35910;BME280;22004;49.120;-0.200;2023-08-08T03:05:34;101732.13;;;17.08;83.17
35910;BME280;22004;49.120;-0.200;2023-08-08T03:07:59;101736.53;;;17.15;82.69
35910;BME280;22004;49.120;-0.200;2023-08-08T03:10:25;101732.94;;;17.08;82.76
35910;BME280;22004;49.120;-0.200;2023-08-08T03:12:50;101731.91;;;17.09;82.67
35910;BME280;22004;49.120;-0.200;2023-08-08T03:15:15;101725.16;;;16.98;83.30
35910;BME280;22004;49.120;-0.200;2023-08-08T03:17:41;101722.19;;;16.87;83.45
35910;BME280;22004;49.120;-0.200;2023-08-08T03:20:06;101724.78;;;17.01;83.47
35910;BME280;22004;49.120;-0.200;2023-08-08T03:22:32;101726.13;;;16.84;83.60
35910;BME280;22004;49.120;-0.200;2023-08-08T03:24:58;101725.88;;;16.79;83.69
35910;BME280;22004;49.120;-0.200;2023-08-08T03:27:24;101726.53;;;16.81;84.00
35910;BME280;22004;49.120;-0.200;2023-08-08T03:29:50;101725.03;;;16.78;84.28
35910;BME280;22004;49.120;-0.200;2023-08-08T03:32:15;101726.66;;;16.73;84.20
35910;BME280;22004;49.120;-0.200;2023-08-08T03:34:41;101730.41;;;16.72;84.82
35910;BME280;22004;49.120;-0.200;2023-08-08T03:37:06;101734.66;;;16.81;84.17
35910;BME280;22004;49.120;-0.200;2023-08-08T03:39:32;101729.41;;;16.79;84.05
35910;BME280;22004;49.120;-0.200;2023-08-08T03:41:57;101733.88;;;16.87;83.71
35910;BME280;22004;49.120;-0.200;2023-08-08T03:44:22;101732.78;;;16.82;83.97
35910;BME280;22004;49.120;-0.200;2023-08-08T03:46:48;101722.81;;;16.89;83.84
35910;BME280;22004;49.120;-0.200;2023-08-08T03:49:15;101710.09;;;16.89;83.62
35910;BME280;22004;49.120;-0.200;2023-08-08T03:51:40;101709.22;;;16.82;83.84
35910;BME280;22004;49.120;-0.200;2023-08-08T03:54:06;101710.44;;;16.79;84.05
35910;BME280;22004;49.120;-0.200;2023-08-08T03:56:31;101707.94;;;16.78;84.30
35910;BME280;22004;49.120;-0.200;2023-08-08T03:58:57;101714.03;;;16.87;84.35
35910;BME280;22004;49.120;-0.200;2023-08-08T04:01:23;101719.72;;;16.70;84.35
35910;BME280;22004;49.120;-0.200;2023-08-08T04:03:48;101717.41;;;16.67;83.64
35910;BME280;22004;49.120;-0.200;2023-08-08T04:06:14;101717.69;;;16.72;84.33
35910;BME280;22004;49.120;-0.200;2023-08-08T04:08:39;101715.34;;;16.69;84.45
35910;BME280;22004;49.120;-0.200;2023-08-08T04:11:04;101718.31;;;16.74;84.61
35910;BME280;22004;49.120;-0.200;2023-08-08T04:13:30;101720.94;;;16.61;84.92
35910;BME280;22004;49.120;-0.200;2023-08-08T04:15:55;101721.56;;;16.63;84.51
35910;BME280;22004;49.120;-0.200;2023-08-08T04:18:20;101720.41;;;16.72;84.83
35910;BME280;22004;49.120;-0.200;2023-08-08T04:20:46;101727.78;;;16.57;84.80
35910;BME280;22004;49.120;-0.200;2023-08-08T04:23:12;101727.19;;;16.62;84.54
35910;BME280;22004;49.120;-0.200;2023-08-08T04:25:38;101722.09;;;16.52;85.18
35910;BME280;22004;49.120;-0.200;2023-08-08T04:28:03;101717.06;;;16.49;84.88
35910;BME280;22004;49.120;-0.200;2023-08-08T04:30:29;101721.63;;;16.48;85.05
35910;BME280;22004;49.120;-0.200;2023-08-08T04:32:54;101725.69;;;16.59;84.58
35910;BME280;22004;49.120;-0.200;2023-08-08T04:35:19;101718.72;;;16.50;84.92
35910;BME280;22004;49.120;-0.200;2023-08-08T04:37:45;101722.69;;;16.47;84.92
35910;BME280;22004;49.120;-0.200;2023-08-08T04:40:10;101733.06;;;16.44;85.37
35910;BME280;22004;49.120;-0.200;2023-08-08T04:42:36;101729.28;;;16.38;85.26
35910;BME280;22004;49.120;-0.200;2023-08-08T04:45:01;101729.53;;;16.43;85.45
35910;BME280;22004;49.120;-0.200;2023-08-08T04:47:27;101727.78;;;16.36;85.23
35910;BME280;22004;49.120;-0.200;2023-08-08T04:49:53;101734.09;;;16.43;85.28
35910;BME280;22004;49.120;-0.200;2023-08-08T04:52:18;101737.03;;;16.41;84.97
35910;BME280;22004;49.120;-0.200;2023-08-08T04:54:43;101714.69;;;16.39;85.33
35910;BME280;22004;49.120;-0.200;2023-08-08T04:57:09;101728.56;;;16.51;85.39
35910;BME280;22004;49.120;-0.200;2023-08-08T04:59:35;101720.94;;;16.40;85.11
35910;BME280;22004;49.120;-0.200;2023-08-08T05:02:00;101718.38;;;16.32;85.42
35910;BME280;22004;49.120;-0.200;2023-08-08T05:04:25;101714.44;;;16.34;85.43
35910;BME280;22004;49.120;-0.200;2023-08-08T05:06:51;101711.72;;;16.34;85.49
35910;BME280;22004;49.120;-0.200;2023-08-08T05:09:16;101728.56;;;16.29;85.38
35910;BME280;22004;49.120;-0.200;2023-08-08T05:11:41;101716.03;;;16.28;85.19
35910;BME280;22004;49.120;-0.200;2023-08-08T05:14:07;101716.94;;;16.36;85.25
35910;BME280;22004;49.120;-0.200;2023-08-08T05:16:32;101711.34;;;16.37;85.20
35910;BME280;22004;49.120;-0.200;2023-08-08T05:18:57;101718.19;;;16.33;85.15
35910;BME280;22004;49.120;-0.200;2023-08-08T05:21:23;101727.59;;;16.37;85.21
35910;BME280;22004;49.120;-0.200;2023-08-08T05:23:49;101730.47;;;16.36;85.14
35910;BME280;22004;49.120;-0.200;2023-08-08T05:26:15;101736.34;;;16.39;85.34
35910;BME280;22004;49.120;-0.200;2023-08-08T05:28:40;101736.88;;;16.49;85.02
35910;BME280;22004;49.120;-0.200;2023-08-08T05:31:06;101721.84;;;16.47;84.84
35910;BME280;22004;49.120;-0.200;2023-08-08T05:33:31;101715.97;;;16.43;84.87
35910;BME280;22004;49.120;-0.200;2023-08-08T05:35:56;101715.75;;;16.45;85.10
35910;BME280;22004;49.120;-0.200;2023-08-08T05:38:22;101701.28;;;16.59;84.99
35910;BME280;22004;49.120;-0.200;2023-08-08T05:40:47;101712.09;;;16.52;84.39
35910;BME280;22004;49.120;-0.200;2023-08-08T05:43:12;101714.84;;;16.59;84.45
35910;BME280;22004;49.120;-0.200;2023-08-08T05:45:42;101699.97;;;16.48;84.77
35910;BME280;22004;49.120;-0.200;2023-08-08T05:48:07;101703.00;;;16.39;84.68
35910;BME280;22004;49.120;-0.200;2023-08-08T05:50:37;101703.38;;;16.57;84.69
35910;BME280;22004;49.120;-0.200;2023-08-08T05:53:02;101708.53;;;16.52;84.20
35910;BME280;22004;49.120;-0.200;2023-08-08T05:55:28;101721.25;;;16.51;84.52
35910;BME280;22004;49.120;-0.200;2023-08-08T05:57:53;101716.59;;;16.67;84.30
35910;BME280;22004;49.120;-0.200;2023-08-08T06:00:19;101714.72;;;16.67;83.93
35910;BME280;22004;49.120;-0.200;2023-08-08T06:02:45;101714.28;;;16.70;83.96
35910;BME280;22004;49.120;-0.200;2023-08-08T06:05:10;101721.28;;;16.79;84.30
35910;BME280;22004;49.120;-0.200;2023-08-08T06:07:36;101727.28;;;16.75;83.90
35910;BME280;22004;49.120;-0.200;2023-08-08T06:10:02;101721.94;;;16.82;83.74
35910;BME280;22004;49.120;-0.200;2023-08-08T06:12:27;101724.06;;;16.86;83.42
35910;BME280;22004;49.120;-0.200;2023-08-08T06:14:53;101717.22;;;16.69;83.77
35910;BME280;22004;49.120;-0.200;2023-08-08T06:17:18;101719.66;;;16.85;83.44
35910;BME280;22004;49.120;-0.200;2023-08-08T06:19:43;101717.63;;;16.94;83.13
35910;BME280;22004;49.120;-0.200;2023-08-08T06:22:09;101719.72;;;16.92;83.41
35910;BME280;22004;49.120;-0.200;2023-08-08T06:24:34;101725.38;;;16.97;83.09
35910;BME280;22004;49.120;-0.200;2023-08-08T06:27:00;101709.06;;;16.69;82.75
35910;BME280;22004;49.120;-0.200;2023-08-08T06:29:25;101707.28;;;16.54;83.27
35910;BME280;22004;49.120;-0.200;2023-08-08T06:31:50;101716.59;;;16.95;83.19
35910;BME280;22004;49.120;-0.200;2023-08-08T06:34:16;101712.56;;;16.84;83.06
35910;BME280;22004;49.120;-0.200;2023-08-08T06:36:41;101701.63;;;16.21;84.63
35910;BME280;22004;49.120;-0.200;2023-08-08T06:39:06;101712.63;;;16.91;82.60
35910;BME280;22004;49.120;-0.200;2023-08-08T06:41:32;101709.63;;;17.62;80.04
35910;BME280;22004;49.120;-0.200;2023-08-08T06:43:58;101720.91;;;18.86;75.79
35910;BME280;22004;49.120;-0.200;2023-08-08T06:46:23;101711.44;;;19.02;74.93
35910;BME280;22004;49.120;-0.200;2023-08-08T06:48:49;101709.75;;;18.15;77.21
35910;BME280;22004;49.120;-0.200;2023-08-08T06:51:15;101709.50;;;17.83;79.35
35910;BME280;22004;49.120;-0.200;2023-08-08T06:53:41;101707.75;;;17.62;79.87
35910;BME280;22004;49.120;-0.200;2023-08-08T06:56:06;101707.19;;;17.73;79.63
35910;BME280;22004;49.120;-0.200;2023-08-08T06:58:31;101708.50;;;18.04;78.59
35910;BME280;22004;49.120;-0.200;2023-08-08T07:00:57;101698.47;;;18.97;76.01
35910;BME280;22004;49.120;-0.200;2023-08-08T07:03:22;101700.09;;;19.76;72.66
35910;BME280;22004;49.120;-0.200;2023-08-08T07:05:47;101704.41;;;19.46;72.34
35910;BME280;22004;49.120;-0.200;2023-08-08T07:08:17;101705.88;;;20.50;69.95
35910;BME280;22004;49.120;-0.200;2023-08-08T07:10:42;101708.66;;;20.68;69.44
35910;BME280;22004;49.120;-0.200;2023-08-08T07:13:08;101701.06;;;20.20;69.92
35910;BME280;22004;49.120;-0.200;2023-08-08T07:15:33;101699.19;;;19.82;71.01
35910;BME280;22004;49.120;-0.200;2023-08-08T07:17:59;101704.00;;;20.44;68.86
35910;BME280;22004;49.120;-0.200;2023-08-08T07:20:25;101703.28;;;20.30;69.50
35910;BME280;22004;49.120;-0.200;2023-08-08T07:22:50;101707.78;;;20.49;67.26
35910;BME280;22004;49.120;-0.200;2023-08-08T07:25:15;101707.13;;;20.54;68.98
35910;BME280;22004;49.120;-0.200;2023-08-08T07:27:41;101702.09;;;21.12;64.86
35910;BME280;22004;49.120;-0.200;2023-08-08T07:30:06;101716.03;;;22.38;61.85
35910;BME280;22004;49.120;-0.200;2023-08-08T07:32:33;101710.19;;;20.32;68.17
35910;BME280;22004;49.120;-0.200;2023-08-08T07:34:58;101720.34;;;21.55;65.26
35910;BME280;22004;49.120;-0.200;2023-08-08T07:37:26;101716.47;;;22.23;62.87
35910;BME280;22004;49.120;-0.200;2023-08-08T07:39:51;101707.91;;;22.01;63.05
35910;BME280;22004;49.120;-0.200;2023-08-08T07:42:17;101713.88;;;21.50;65.20
35910;BME280;22004;49.120;-0.200;2023-08-08T07:44:42;101704.50;;;21.76;64.11
35910;BME280;22004;49.120;-0.200;2023-08-08T07:47:08;101709.34;;;22.34;61.76
35910;BME280;22004;49.120;-0.200;2023-08-08T07:49:33;101712.06;;;23.39;59.00
35910;BME280;22004;49.120;-0.200;2023-08-08T07:51:58;101714.84;;;22.81;60.37
35910;BME280;22004;49.120;-0.200;2023-08-08T07:54:24;101716.34;;;24.04;57.21
35910;BME280;22004;49.120;-0.200;2023-08-08T07:56:49;101707.94;;;23.94;59.00
35910;BME280;22004;49.120;-0.200;2023-08-08T07:59:15;101701.09;;;23.80;58.85
35910;BME280;22004;49.120;-0.200;2023-08-08T08:01:41;101694.47;;;24.38;56.97
35910;BME280;22004;49.120;-0.200;2023-08-08T08:04:06;101694.25;;;22.78;58.88
35910;BME280;22004;49.120;-0.200;2023-08-08T08:06:32;101695.63;;;23.96;58.07
35910;BME280;22004;49.120;-0.200;2023-08-08T08:08:57;101696.00;;;23.71;58.61
35910;BME280;22004;49.120;-0.200;2023-08-08T08:11:23;101697.28;;;23.40;57.85
35910;BME280;22004;49.120;-0.200;2023-08-08T08:13:48;101702.84;;;23.45;58.98
35910;BME280;22004;49.120;-0.200;2023-08-08T08:16:13;101700.66;;;23.59;59.08
35910;BME280;22004;49.120;-0.200;2023-08-08T08:18:39;101708.78;;;23.94;56.04
35910;BME280;22004;49.120;-0.200;2023-08-08T08:21:04;101700.31;;;23.15;58.01
35910;BME280;22004;49.120;-0.200;2023-08-08T08:23:30;101710.19;;;22.81;57.08
35910;BME280;22004;49.120;-0.200;2023-08-08T08:25:57;101705.69;;;23.10;57.16
35910;BME280;22004;49.120;-0.200;2023-08-08T08:28:23;101706.72;;;23.33;58.69
35910;BME280;22004;49.120;-0.200;2023-08-08T08:30:48;101707.38;;;24.37;57.08
35910;BME280;22004;49.120;-0.200;2023-08-08T08:33:14;101705.16;;;24.22;56.18
35910;BME280;22004;49.120;-0.200;2023-08-08T08:35:40;101712.09;;;23.28;57.85
35910;BME280;22004;49.120;-0.200;2023-08-08T08:38:05;101706.31;;;22.89;58.09
35910;BME280;22004;49.120;-0.200;2023-08-08T08:40:36;101698.16;;;24.15;54.28
35910;BME280;22004;49.120;-0.200;2023-08-08T08:43:02;101698.47;;;24.47;53.96
35910;BME280;22004;49.120;-0.200;2023-08-08T08:45:29;101699.34;;;24.19;56.53
35910;BME280;22004;49.120;-0.200;2023-08-08T08:47:55;101697.53;;;25.58;53.84
35910;BME280;22004;49.120;-0.200;2023-08-08T08:50:22;101695.50;;;23.75;56.73
35910;BME280;22004;49.120;-0.200;2023-08-08T08:52:49;101698.59;;;22.21;60.29
35910;BME280;22004;49.120;-0.200;2023-08-08T08:55:15;101691.50;;;21.04;63.30
35910;BME280;22004;49.120;-0.200;2023-08-08T08:57:42;101679.06;;;20.90;64.91
35910;BME280;22004;49.120;-0.200;2023-08-08T09:00:10;101689.44;;;21.00;63.50
35910;BME280;22004;49.120;-0.200;2023-08-08T09:02:36;101683.66;;;22.82;59.20
35910;BME280;22004;49.120;-0.200;2023-08-08T09:05:03;101677.84;;;23.82;57.61
35910;BME280;22004;49.120;-0.200;2023-08-08T09:07:29;101677.06;;;23.70;58.66
35910;BME280;22004;49.120;-0.200;2023-08-08T09:09:56;101680.13;;;22.04;61.21
35910;BME280;22004;49.120;-0.200;2023-08-08T09:12:22;101668.06;;;20.97;63.95
35910;BME280;22004;49.120;-0.200;2023-08-08T09:14:54;101671.19;;;21.67;62.37
35910;BME280;22004;49.120;-0.200;2023-08-08T09:17:20;101677.59;;;23.03;59.54
35910;BME280;22004;49.120;-0.200;2023-08-08T09:19:45;101682.34;;;23.88;55.85
35910;BME280;22004;49.120;-0.200;2023-08-08T09:22:12;101697.69;;;24.68;55.11
35910;BME280;22004;49.120;-0.200;2023-08-08T09:24:39;101682.84;;;23.45;57.57
35910;BME280;22004;49.120;-0.200;2023-08-08T09:27:06;101678.25;;;23.62;56.58
35910;BME280;22004;49.120;-0.200;2023-08-08T09:29:32;101673.84;;;23.90;55.96
35910;BME280;22004;49.120;-0.200;2023-08-08T09:31:58;101675.97;;;23.71;56.82
35910;BME280;22004;49.120;-0.200;2023-08-08T09:34:26;101674.66;;;23.33;56.36
35910;BME280;22004;49.120;-0.200;2023-08-08T09:36:52;101686.28;;;23.00;57.73
35910;BME280;22004;49.120;-0.200;2023-08-08T09:39:18;101677.09;;;22.48;57.50
35910;BME280;22004;49.120;-0.200;2023-08-08T09:41:45;101671.38;;;20.80;62.94
35910;BME280;22004;49.120;-0.200;2023-08-08T09:44:11;101684.59;;;21.02;63.39
35910;BME280;22004;49.120;-0.200;2023-08-08T09:46:37;101676.78;;;21.72;61.87
35910;BME280;22004;49.120;-0.200;2023-08-08T09:49:04;101676.22;;;23.69;54.67
35910;BME280;22004;49.120;-0.200;2023-08-08T09:51:29;101677.41;;;23.73;53.51
35910;BME280;22004;49.120;-0.200;2023-08-08T09:53:55;101684.06;;;22.08;60.12
35910;BME280;22004;49.120;-0.200;2023-08-08T09:56:23;101675.22;;;21.34;62.16
35910;BME280;22004;49.120;-0.200;2023-08-08T09:58:49;101672.50;;;23.35;54.22
35910;BME280;22004;49.120;-0.200;2023-08-08T10:01:15;101673.59;;;23.91;56.03
35910;BME280;22004;49.120;-0.200;2023-08-08T10:03:41;101666.91;;;23.30;53.01
35910;BME280;22004;49.120;-0.200;2023-08-08T10:06:08;101661.91;;;24.13;54.51
35910;BME280;22004;49.120;-0.200;2023-08-08T10:08:34;101654.09;;;24.21;53.76
35910;BME280;22004;49.120;-0.200;2023-08-08T10:11:00;101641.19;;;23.88;54.29
35910;BME280;22004;49.120;-0.200;2023-08-08T10:13:26;101643.31;;;24.32;56.14
35910;BME280;22004;49.120;-0.200;2023-08-08T10:15:53;101652.84;;;22.39;59.36
35910;BME280;22004;49.120;-0.200;2023-08-08T10:18:21;101656.50;;;22.80;59.43
35910;BME280;22004;49.120;-0.200;2023-08-08T10:20:48;101658.19;;;23.05;55.50
35910;BME280;22004;49.120;-0.200;2023-08-08T10:23:15;101649.09;;;24.02;54.25
35910;BME280;22004;49.120;-0.200;2023-08-08T10:25:50;101641.13;;;24.34;54.95
35910;BME280;22004;49.120;-0.200;2023-08-08T10:28:18;101633.78;;;22.80;55.31
35910;BME280;22004;49.120;-0.200;2023-08-08T10:30:45;101643.03;;;23.83;56.65
35910;BME280;22004;49.120;-0.200;2023-08-08T10:33:26;101632.66;;;24.18;52.99
35910;BME280;22004;49.120;-0.200;2023-08-08T10:36:04;101633.78;;;23.72;52.81
35910;BME280;22004;49.120;-0.200;2023-08-08T10:38:50;101623.25;;;23.97;50.54
35910;BME280;22004;49.120;-0.200;2023-08-08T10:41:18;101610.78;;;23.04;54.44
35910;BME280;22004;49.120;-0.200;2023-08-08T10:46:31;101607.09;;;23.39;57.40
35910;BME280;22004;49.120;-0.200;2023-08-08T10:48:59;101612.50;;;23.51;55.30
35910;BME280;22004;49.120;-0.200;2023-08-08T10:51:42;101609.38;;;23.87;56.02
35910;BME280;22004;49.120;-0.200;2023-08-08T10:54:14;101608.44;;;23.65;55.70
35910;BME280;22004;49.120;-0.200;2023-08-08T10:56:40;101615.25;;;23.51;57.59
35910;BME280;22004;49.120;-0.200;2023-08-08T10:59:20;101628.00;;;24.19;56.00
35910;BME280;22004;49.120;-0.200;2023-08-08T11:01:49;101633.44;;;23.68;55.05
35910;BME280;22004;49.120;-0.200;2023-08-08T11:04:18;101626.41;;;23.61;56.25
35910;BME280;22004;49.120;-0.200;2023-08-08T11:06:44;101638.94;;;23.68;57.48
35910;BME280;22004;49.120;-0.200;2023-08-08T11:09:11;101635.84;;;23.65;56.75
35910;BME280;22004;49.120;-0.200;2023-08-08T11:11:40;101652.75;;;22.58;60.04
35910;BME280;22004;49.120;-0.200;2023-08-08T11:14:16;101650.16;;;22.09;58.40
35910;BME280;22004;49.120;-0.200;2023-08-08T11:16:42;101638.16;;;22.10;58.59
35910;BME280;22004;49.120;-0.200;2023-08-08T11:19:10;101634.81;;;21.66;62.78
35910;BME280;22004;49.120;-0.200;2023-08-08T11:21:39;101647.38;;;21.98;62.85
35910;BME280;22004;49.120;-0.200;2023-08-08T11:24:05;101626.00;;;22.06;61.70
35910;BME280;22004;49.120;-0.200;2023-08-08T11:26:31;101628.09;;;22.69;61.51
35910;BME280;22004;49.120;-0.200;2023-08-08T11:28:59;101615.31;;;23.39;58.59
35910;BME280;22004;49.120;-0.200;2023-08-08T11:31:24;101616.44;;;23.26;59.03
35910;BME280;22004;49.120;-0.200;2023-08-08T11:33:50;101606.63;;;23.02;59.08
35910;BME280;22004;49.120;-0.200;2023-08-08T11:36:15;101610.63;;;23.23;58.72
35910;BME280;22004;49.120;-0.200;2023-08-08T11:38:42;101598.72;;;22.53;60.74
35910;BME280;22004;49.120;-0.200;2023-08-08T11:41:10;101587.38;;;22.61;61.67
35910;BME280;22004;49.120;-0.200;2023-08-08T11:43:39;101606.66;;;23.30;59.09
35910;BME280;22004;49.120;-0.200;2023-08-08T11:46:11;101611.97;;;23.37;58.73
35910;BME280;22004;49.120;-0.200;2023-08-08T11:48:37;101610.44;;;23.69;58.32
35910;BME280;22004;49.120;-0.200;2023-08-08T11:51:06;101600.13;;;24.10;56.65
35910;BME280;22004;49.120;-0.200;2023-08-08T11:53:33;101591.06;;;24.27;55.81
35910;BME280;22004;49.120;-0.200;2023-08-08T11:56:01;101583.75;;;24.49;56.87
35910;BME280;22004;49.120;-0.200;2023-08-08T11:58:29;101587.72;;;24.80;54.51
35910;BME280;22004;49.120;-0.200;2023-08-08T12:00:56;101593.66;;;23.83;56.26
35910;BME280;22004;49.120;-0.200;2023-08-08T12:03:22;101589.50;;;23.52;54.95
35910;BME280;22004;49.120;-0.200;2023-08-08T12:05:48;101592.03;;;22.37;58.57
35910;BME280;22004;49.120;-0.200;2023-08-08T12:08:22;101587.81;;;23.34;59.31
35910;BME280;22004;49.120;-0.200;2023-08-08T12:10:50;101585.19;;;23.84;58.11
35910;BME280;22004;49.120;-0.200;2023-08-08T12:13:21;101576.47;;;22.50;58.60
35910;BME280;22004;49.120;-0.200;2023-08-08T12:15:47;101571.97;;;22.43;59.10
35910;BME280;22004;49.120;-0.200;2023-08-08T12:18:16;101574.69;;;22.55;58.96
35910;BME280;22004;49.120;-0.200;2023-08-08T12:20:42;101576.19;;;22.75;59.83
35910;BME280;22004;49.120;-0.200;2023-08-08T12:23:08;101583.59;;;24.22;57.58
35910;BME280;22004;49.120;-0.200;2023-08-08T12:25:33;101570.09;;;23.25;56.51
35910;BME280;22004;49.120;-0.200;2023-08-08T12:27:59;101576.25;;;23.60;58.29
35910;BME280;22004;49.120;-0.200;2023-08-08T12:30:24;101575.97;;;23.62;55.36
35910;BME280;22004;49.120;-0.200;2023-08-08T12:32:49;101567.31;;;23.65;57.70
35910;BME280;22004;49.120;-0.200;2023-08-08T12:35:15;101555.41;;;23.02;58.26
35910;BME280;22004;49.120;-0.200;2023-08-08T12:37:41;101552.53;;;22.57;61.12
35910;BME280;22004;49.120;-0.200;2023-08-08T12:40:07;101556.66;;;23.23;60.14